Latest Weather Observations for Horsley Park

IDN60801

Issued at 9:35 pm EST Friday 29 August 2014 (issued every 30 minutes, with the page automatically refreshed every 10 minutes)

About weather observations | Map of weather stations | Latest weather observations for NSW | Other Formats
Station Details ID: 067119 Name: HORSLEY PARK EQUESTRIAN CENTRE AWS Lat: -33.85 Lon: 150.86 Height: 100.0 m
Data from the previous 72 hours. | See also: Recent months at Horsley Park
Date/Time
EST
Temp
°C
App
Temp
°C
Dew
Point
Rel
Hum
%
Delta-T
°C
Wind Press
QNH
hPa
Press
MSL
hPa
Rain
since 9 am
mm
Dir
 
Spd
km/h
Gust
km/h
Spd
kts
Gust
kts
29/09:30pm 11.9 9.1 7.0 72 2.4 SW 11 15 6 8 - - 0.0
29/09:00pm 12.2 9.8 7.1 71 2.5 SW 9 15 5 8 - - 0.0
29/08:30pm 12.8 9.4 7.7 71 2.5 SSW 15 24 8 13 - - 0.0
29/08:00pm 12.9 10.0 8.0 72 2.4 SSW 13 19 7 10 - - 0.0
29/07:30pm 13.1 9.4 8.0 71 2.5 SSW 17 26 9 14 - - 0.0
29/07:00pm 12.9 9.9 7.8 71 2.5 S 13 22 7 12 - - 0.0
29/06:30pm 13.7 9.9 7.7 67 3.0 S 17 28 9 15 - - 0.0
29/06:00pm 13.7 10.3 7.7 67 3.0 S 15 24 8 13 - - 0.0
29/05:30pm 14.2 9.8 7.5 64 3.3 S 20 33 11 18 - - 0.0
29/05:00pm 14.8 11.9 8.3 65 3.3 S 13 22 7 12 - - 0.0
29/04:30pm 16.0 12.6 7.5 57 4.3 SSW 15 20 8 11 - - 0.0
29/04:00pm 15.2 10.8 6.7 57 4.2 S 19 30 10 16 - - 0.0
29/03:30pm 15.9 11.0 7.1 56 4.4 S 22 37 12 20 - - 0.0
29/03:06pm 15.6 9.3 7.4 58 4.1 S 30 43 16 23 - - 0.0
29/03:00pm 16.8 13.5 8.0 56 4.5 SSW 15 24 8 13 - - 0.0
29/02:30pm 16.2 12.8 7.7 57 4.3 SSW 15 24 8 13 - - 0.0
29/02:00pm 15.6 11.1 7.1 57 4.2 SSW 20 32 11 17 - - 0.0
29/01:30pm 15.5 11.3 8.3 62 3.7 S 20 32 11 17 - - 0.0
29/01:00pm 14.0 11.8 10.8 81 1.7 SSE 13 22 7 12 - - 0.0
29/12:30pm 15.0 12.7 9.1 68 3.0 SSE 11 20 6 11 - - 0.0
29/12:00pm 16.3 12.7 6.7 53 4.7 S 15 30 8 16 - - 0.0
29/11:30am 17.0 13.8 8.4 57 4.4 SSW 15 24 8 13 - - 0.0
29/11:00am 15.5 11.7 7.5 59 4.0 S 17 28 9 15 - - 0.0
29/10:30am 16.5 12.8 8.0 57 4.3 SSW 17 30 9 16 - - 0.0
29/10:00am 15.8 11.8 8.3 61 3.8 SSW 19 35 10 19 - - 0.0
29/09:30am 14.9 11.7 8.4 65 3.3 SSW 15 28 8 15 - - 0.0
29/09:00am 13.6 10.4 8.4 71 2.6 SW 15 24 8 13 - - 0.2
29/08:30am 12.3 9.9 8.6 78 1.8 SW 11 17 6 9 - - 0.2
29/08:00am 10.8 8.2 7.7 81 1.5 WSW 11 15 6 8 - - 0.2
29/07:30am 10.4 7.7 7.3 81 1.5 WSW 11 15 6 8 - - 0.2
29/07:00am 9.5 6.3 6.9 84 1.2 SW 13 17 7 9 - - 0.2
29/06:30am 9.0 6.1 6.6 85 1.1 SW 11 17 6 9 - - 0.2
29/06:00am 9.0 6.1 6.6 85 1.1 SW 11 17 6 9 - - 0.2
29/05:30am 9.0 6.5 6.4 84 1.2 SW 9 13 5 7 - - 0.2
29/05:00am 9.3 6.4 6.7 84 1.2 SW 11 17 6 9 - - 0.2
29/04:30am 9.0 6.1 6.4 84 1.2 SW 11 19 6 10 - - 0.2
29/04:00am 9.1 5.8 6.4 83 1.3 SW 13 19 7 10 - - 0.2
29/03:30am 9.3 6.4 6.4 82 1.3 SW 11 15 6 8 - - 0.2
29/03:00am 9.7 6.4 6.6 81 1.5 SW 13 17 7 9 - - 0.2
29/02:30am 9.6 6.7 6.7 82 1.4 SW 11 15 6 8 - - 0.2
29/02:00am 9.8 6.9 6.5 80 1.5 SW 11 15 6 8 - - 0.2
29/01:30am 10.1 6.8 6.6 79 1.6 SW 13 19 7 10 - - 0.2
29/01:00am 10.2 7.0 6.7 79 1.7 SW 13 20 7 11 - - 0.2
29/12:30am 10.3 7.1 6.8 79 1.7 SW 13 19 7 10 - - 0.2
29/12:00am 10.0 7.1 6.7 80 1.6 SW 11 15 6 8 - - 0.2
 
Date/Time
EST
Temp
°C
App
Temp
°C
Dew
Point
Rel
Hum
%
Delta-T
°C
Wind Press
QNH
hPa
Press
MSL
hPa
Rain
since 9 am
mm
Dir
 
Spd
km/h
Gust
km/h
Spd
kts
Gust
kts
28/11:30pm 10.3 7.5 7.0 80 1.6 SW 11 15 6 8 - - 0.2
28/11:00pm 10.6 7.5 7.1 79 1.7 SW 13 17 7 9 - - 0.2
28/10:30pm 10.9 8.1 7.0 77 1.9 SW 11 17 6 9 - - 0.2
28/10:00pm 11.1 8.0 7.2 77 1.9 SW 13 17 7 9 - - 0.2
28/09:30pm 11.2 8.5 7.5 78 1.8 SW 11 17 6 9 - - 0.2
28/09:00pm 10.9 8.5 7.2 78 1.8 SW 9 13 5 7 - - 0.2
28/08:30pm 11.7 9.4 7.6 76 2.0 SW 9 13 5 7 - - 0.2
28/08:00pm 12.1 9.9 7.8 75 2.1 SW 9 13 5 7 - - 0.2
28/07:30pm 12.0 9.8 7.9 76 2.0 SSW 9 11 5 6 - - 0.2
28/07:00pm 12.1 10.3 7.8 75 2.1 SSW 7 11 4 6 - - 0.2
28/06:30pm 12.4 10.8 7.9 74 2.2 SSW 6 9 3 5 - - 0.2
28/06:00pm 13.6 11.9 8.2 70 2.7 S 7 13 4 7 - - 0.2
28/05:30pm 14.1 12.0 8.3 68 2.9 SSE 9 19 5 10 - - 0.2
28/05:00pm 14.5 11.0 8.7 68 2.9 SSE 17 26 9 14 - - 0.2
28/04:30pm 15.8 12.0 9.0 64 3.5 SE 19 30 10 16 - - 0.0
28/04:00pm 16.3 12.1 8.3 59 4.1 SSE 20 33 11 18 - - 0.0
28/03:30pm 16.7 12.3 7.4 54 4.7 SSE 20 32 11 17 - - 0.0
28/03:00pm 17.6 13.4 7.6 52 5.1 SSE 19 28 10 15 - - 0.0
28/02:30pm 15.9 11.1 5.8 51 4.9 SSE 20 32 11 17 - - 0.0
28/02:00pm 17.6 13.8 9.2 58 4.4 S 19 32 10 17 - - 0.0
28/01:30pm 17.4 13.7 8.0 54 4.8 SSE 17 28 9 15 - - 0.0
28/01:00pm 16.7 12.5 7.4 54 4.7 S 19 33 10 18 - - 0.0
28/12:30pm 17.0 13.0 8.9 59 4.2 SSE 20 33 11 18 - - 0.0
28/12:00pm 16.7 12.2 8.4 58 4.3 SSE 22 35 12 19 - - 0.0
28/11:30am 18.4 14.8 10.5 60 4.3 SE 20 33 11 18 - - 0.0
28/11:00am 16.7 13.6 10.3 66 3.4 SSE 17 30 9 16 - - 0.0
28/10:30am 16.3 13.9 10.2 67 3.2 S 13 20 7 11 - - 0.0
28/10:00am 16.0 13.9 11.0 72 2.7 SSW 13 20 7 11 - - 0.0
28/09:30am 15.1 12.8 11.7 80 1.8 S 15 22 8 12 - - 0.0
28/09:00am 14.1 12.2 11.8 86 1.2 SSW 13 20 7 11 - - -
28/08:30am 12.4 10.5 10.6 89 0.9 SW 11 17 6 9 - - -
28/08:00am 11.9 9.5 10.0 88 1.0 SSW 13 20 7 11 - - -
28/07:30am 11.7 10.1 10.1 90 0.8 SW 9 15 5 8 - - -
28/07:00am 11.3 9.2 9.9 91 0.7 SW 11 15 6 8 - - -
28/06:30am 11.3 8.9 10.0 92 0.7 SW 13 19 7 10 - - -
28/06:00am 11.4 9.1 10.3 93 0.6 SSW 13 19 7 10 - - -
28/05:30am 11.6 9.9 9.7 88 1.0 SSW 9 17 5 9 - - -
28/05:00am 11.7 9.4 9.1 84 1.3 SSW 11 17 6 9 - - -
28/04:30am 11.8 8.0 9.0 83 1.4 SW 19 28 10 15 - - -
28/04:00am 11.6 8.2 9.0 84 1.3 SW 17 26 9 14 - - -
28/03:30am 11.5 8.4 8.9 84 1.3 SW 15 22 8 12 - - -
28/03:00am 11.6 8.2 9.0 84 1.3 SW 17 24 9 13 - - -
28/02:30am 11.3 7.4 8.7 84 1.3 SW 19 26 10 14 - - -
28/02:00am 10.9 7.7 8.5 85 1.2 SW 15 20 8 11 - - -
28/01:30am 11.0 7.3 7.9 81 1.5 SW 17 22 9 12 - - -
28/01:00am 10.9 7.4 7.4 79 1.7 SW 15 20 8 11 - - -
28/12:30am 10.9 7.8 7.2 78 1.8 SW 13 22 7 12 - - 0.2
28/12:00am 11.1 7.6 7.2 77 1.9 SW 15 20 8 11 - - 0.2
 
Date/Time
EST
Temp
°C
App
Temp
°C
Dew
Point
Rel
Hum
%
Delta-T
°C
Wind Press
QNH
hPa
Press
MSL
hPa
Rain
since 9 am
mm
Dir
 
Spd
km/h
Gust
km/h
Spd
kts
Gust
kts
27/11:30pm 11.1 8.0 7.2 77 1.9 SW 13 19 7 10 - - 0.2
27/11:00pm 11.2 8.2 7.5 78 1.8 SW 13 20 7 11 - - 0.2
27/10:30pm 11.3 7.9 7.6 78 1.8 SW 15 22 8 12 - - 0.2
27/10:00pm 11.6 8.2 7.5 76 2.0 SW 15 22 8 12 - - 0.2
27/09:30pm 11.6 8.2 7.7 77 1.9 SW 15 19 8 10 - - 0.2
27/09:00pm 11.4 8.8 7.9 79 1.7 SW 11 17 6 9 - - 0.2
27/08:30pm 11.9 9.1 8.4 79 1.7 SW 13 19 7 10 - - 0.2
27/08:00pm 12.2 9.4 8.5 78 1.8 SSW 13 19 7 10 - - 0.2
27/07:30pm 12.7 10.0 8.8 77 2.0 SSW 13 22 7 12 - - 0.2
27/07:00pm 12.9 10.2 9.0 77 2.0 S 13 24 7 13 - - 0.2
27/06:30pm 12.9 10.8 9.7 81 1.6 SSW 11 17 6 9 - - 0.2
27/06:00pm 13.3 10.8 9.7 79 1.9 S 13 24 7 13 - - 0.2
27/05:30pm 13.8 11.0 10.0 78 2.0 S 15 28 8 15 - - 0.2
27/05:00pm 14.1 10.6 10.1 77 2.1 S 19 28 10 15 - - 0.2
27/04:30pm 14.3 11.3 10.7 79 1.9 S 17 24 9 13 - - 0.2
27/04:00pm 14.7 11.1 10.5 76 2.2 S 20 33 11 18 - - 0.2
27/03:30pm 15.2 11.7 11.0 76 2.2 SE 20 35 11 19 - - 0.2
27/03:00pm 14.9 12.7 10.9 77 2.1 SSE 13 22 7 12 - - 0.2
27/02:30pm 14.4 9.4 9.6 73 2.5 SE 26 43 14 23 - - 0.0
27/02:00pm 15.8 11.5 9.5 66 3.3 SE 22 33 12 18 - - 0.0
27/01:30pm 17.3 13.1 8.4 56 4.6 S 20 33 11 18 - - 0.0
27/01:00pm 16.2 12.9 9.6 65 3.5 SSE 17 30 9 16 - - 0.0
27/12:30pm 16.0 11.7 9.2 64 3.5 SSE 22 35 12 19 - - 0.0
27/12:00pm 16.7 12.2 8.7 59 4.1 S 22 39 12 21 - - 0.0
27/11:30am 17.2 13.6 10.6 65 3.5 SSE 20 35 11 19 - - 0.0
27/11:00am 16.4 11.7 9.3 63 3.7 SSE 24 39 13 21 - - 0.0
27/10:30am 16.3 11.9 10.4 68 3.1 SSE 24 37 13 20 - - 0.0
27/10:00am 14.7 13.0 12.4 86 1.3 SW 13 22 7 12 - - 0.0
27/09:30am 13.8 12.9 12.5 92 0.7 WSW 9 15 5 8 - - 0.0
27/09:00am 13.2 12.5 12.1 93 0.6 W 7 15 4 8 - - 23.0
27/08:30am 12.6 11.8 11.8 95 0.4 SSW 7 13 4 7 - - 23.0
27/08:00am 12.5 10.5 11.6 94 0.5 S 13 20 7 11 - - 22.4
27/07:30am 12.3 9.9 11.5 95 0.4 SSW 15 22 8 12 - - 21.6
27/07:00am 12.1 10.1 11.5 96 0.3 SW 13 19 7 10 - - 21.4
27/06:30am 11.9 10.6 11.1 95 0.4 SSW 9 13 5 7 - - 20.8
27/06:00am 12.1 10.0 11.3 95 0.4 SSW 13 20 7 11 - - 18.2
27/05:30am 12.1 10.4 11.2 94 0.5 SSW 11 17 6 9 - - 17.4
27/05:00am 12.4 10.4 11.5 94 0.5 SSW 13 19 7 10 - - 17.4
27/04:30am 12.5 10.9 11.6 94 0.5 S 11 19 6 10 - - 16.4
27/04:00am 12.6 10.6 11.5 93 0.6 S 13 22 7 12 - - 16.4
27/03:30am 12.3 11.6 11.4 94 0.5 S 6 9 3 5 - - 16.4
27/03:00am 12.2 11.5 11.4 95 0.4 SW 6 9 3 5 - - 16.4
27/02:30am 12.3 11.0 11.2 93 0.6 SW 9 13 5 7 - - 16.0
27/02:00am 12.3 10.7 11.4 94 0.5 SSW 11 15 6 8 - - 15.6
27/01:30am 12.3 10.3 11.4 94 0.5 SW 13 19 7 10 - - 15.6
27/01:00am 12.4 11.3 11.8 96 0.3 SSW 9 13 5 7 - - 15.6
27/12:30am 12.6 11.8 11.8 95 0.4 E 7 15 4 8 - - 14.4
27/12:00am 12.6 11.9 12.0 96 0.3 SSE 7 17 4 9 - - 11.4
 
Date/Time
EST
Temp
°C
App
Temp
°C
Dew
Point
Rel
Hum
%
Delta-T
°C
Wind Press
QNH
hPa
Press
MSL
hPa
Rain
since 9 am
mm
Dir
 
Spd
km/h
Gust
km/h
Spd
kts
Gust
kts
26/11:30pm 12.6 10.8 12.1 97 0.3 S 13 17 7 9 - - 10.8
26/11:00pm 12.6 10.8 12.0 96 0.3 S 13 19 7 10 - - 10.0
26/10:30pm 12.5 10.2 11.9 96 0.3 S 15 24 8 13 - - 10.0
26/10:00pm 13.0 10.0 11.9 93 0.6 SSE 19 37 10 20 - - 9.6

Other Formats:

Comma delimited format used in spreadsheet applications
http://www.bom.gov.au/fwo/IDN60801/IDN60801.94760.axf

JavaScript Object Notation format (JSON) in row-major order
http://www.bom.gov.au/fwo/IDN60801/IDN60801.94760.json